KCCA

Details ICAO KCCA
Name Chaffee AAF
Region United States
Timezone America/Chicago (UTC-5.0)
Plans Departing 0
Arriving 1
Stats Elevation 470 ft / 143 m (AMSL)
Location 35.300092° -94.316879°
Runways 2
Magnetic Variation 1.595° E
Sunrise 2018-05-26 11:07:36 UTC / 2018-05-26 06:07:36 Local
Sunset 2018-05-27 01:23:58 UTC / 2018-05-26 20:23:58 Local
Advertisement - Login to hide

Runways

ID Width Length Bearing (true) Bearing (mag) Surface Threshold Offset Overrun Length
03 120 ft / 37 m 1,602 ft / 488 m 35.00° 33.40° Gravel 0 ft / 0 m 0 ft / 0 m
07 120 ft / 37 m 2,202 ft / 671 m 75.00° 73.40° Gravel 0 ft / 0 m 0 ft / 0 m
21 120 ft / 37 m 1,602 ft / 488 m 215.00° 213.40° Gravel 0 ft / 0 m 0 ft / 0 m
25 120 ft / 37 m 2,202 ft / 671 m 255.00° 253.40° Gravel 0 ft / 0 m 0 ft / 0 m

Map

Weather


0- 5 10 15 20 25 30 35+ Temperature / ° C

Clouds and Precipitation
Forecast for 2018-05-27 06:00 UTC. Updated 33 minutes ago

Ground ~20,000 ft ~40,000 ft Winds

METAR

KCCA 270535Z AUTO 00000KT 7SM BKN033 20/20 A2989 RMK AO2

TAF

Not found
Warning: Do not use this data for real-world aviation or navigation. No guarantee of current accuracy is given.